createdAt,value
2023-04-11T00:00:19.119Z,-4.79
2023-04-11T00:02:48.311Z,-4.70
2023-04-11T00:05:17.361Z,-4.51
2023-04-11T00:07:46.095Z,-4.36
2023-04-11T00:10:14.968Z,-4.34
2023-04-11T00:12:43.788Z,-4.28
2023-04-11T00:15:12.725Z,-4.26
2023-04-11T00:17:42.333Z,-4.18
2023-04-11T00:20:11.534Z,-4.16
2023-04-11T00:22:40.748Z,-4.10
2023-04-11T00:25:09.760Z,-4.04
2023-04-11T00:27:38.566Z,-3.93
2023-04-11T00:30:08.853Z,-3.79
2023-04-11T00:32:37.677Z,-3.76
2023-04-11T00:35:07.111Z,-3.74
2023-04-11T00:37:36.776Z,-3.70
2023-04-11T00:40:08.701Z,-3.68
2023-04-11T00:42:37.568Z,-3.61
2023-04-11T00:45:07.227Z,-3.60
2023-04-11T00:47:36.677Z,-3.53
2023-04-11T00:50:06.212Z,-3.64
2023-04-11T00:52:37.544Z,-3.62
2023-04-11T00:55:08.353Z,-3.51
2023-04-11T00:57:37.415Z,-3.41
2023-04-11T01:00:11.505Z,-3.38
2023-04-11T01:02:43.788Z,-3.23
2023-04-11T01:05:15.375Z,-3.09
2023-04-11T01:07:47.643Z,-2.96
2023-04-11T01:10:18.230Z,-2.82
2023-04-11T01:12:47.680Z,-2.40
2023-04-11T01:15:16.694Z,-2.24
2023-04-11T01:17:48.634Z,-2.24
2023-04-11T01:20:17.623Z,-2.13
2023-04-11T01:22:48.294Z,-2.03
2023-04-11T01:25:19.269Z,-1.91
2023-04-11T01:27:49.008Z,-1.91
2023-04-11T01:30:18.721Z,-1.94
2023-04-11T01:32:51.222Z,-1.87
2023-04-11T01:35:20.837Z,-1.98
2023-04-11T01:37:49.710Z,-1.89
2023-04-11T01:40:19.646Z,-1.83
2023-04-11T01:42:49.367Z,-1.83
2023-04-11T01:45:19.533Z,-1.82
2023-04-11T01:47:50.775Z,-1.81
2023-04-11T01:50:19.799Z,-1.84
2023-04-11T01:52:52.602Z,-1.78
2023-04-11T01:55:21.550Z,-1.73
2023-04-11T01:57:50.414Z,-1.62
2023-04-11T02:00:20.359Z,-1.58
2023-04-11T02:02:49.483Z,-1.64
2023-04-11T02:05:18.327Z,-1.78
2023-04-11T02:07:47.237Z,-2.02
2023-04-11T02:10:19.775Z,-2.07
2023-04-11T02:12:48.658Z,-2.18
2023-04-11T02:15:17.478Z,-2.13
2023-04-11T02:17:46.607Z,-2.13
2023-04-11T02:20:15.584Z,-1.87
2023-04-11T02:22:44.333Z,-1.60
2023-04-11T02:25:13.098Z,-1.02
2023-04-11T02:27:41.964Z,-0.39
2023-04-11T02:30:10.908Z,0.17
2023-04-11T02:32:40.094Z,0.76
2023-04-11T02:35:09.351Z,1.41
2023-04-11T02:37:40.571Z,2.08
2023-04-11T02:40:11.506Z,2.75
2023-04-11T02:42:43.602Z,3.17
2023-04-11T02:45:12.925Z,3.70
2023-04-11T02:47:41.851Z,3.38
2023-04-11T02:50:12.194Z,2.48
2023-04-11T02:52:49.860Z,1.55
2023-04-11T02:55:23.759Z,0.76
2023-04-11T02:57:53.405Z,0.37
2023-04-11T03:00:24.041Z,0.05
2023-04-11T03:03:03.608Z,-0.20
2023-04-11T03:05:38.489Z,-0.30
2023-04-11T03:08:09.501Z,0.23
2023-04-11T03:10:41.464Z,1.69
2023-04-11T03:13:12.648Z,2.68
2023-04-11T03:15:42.297Z,2.08
2023-04-11T03:18:13.043Z,1.06
2023-04-11T03:20:45.647Z,0.46
2023-04-11T03:23:16.789Z,-0.20
2023-04-11T03:25:46.220Z,-0.49
2023-04-11T03:28:16.358Z,-0.61
2023-04-11T03:30:45.312Z,-0.73
2023-04-11T03:33:21.269Z,-0.74
2023-04-11T03:35:50.146Z,-0.71
2023-04-11T03:38:18.970Z,-0.49
2023-04-11T03:40:50.206Z,-0.17
2023-04-11T03:43:22.548Z,-0.25
2023-04-11T03:45:53.918Z,-0.45
2023-04-11T03:48:33.461Z,-0.79
2023-04-11T03:51:08.278Z,-0.91
2023-04-11T03:53:57.587Z,-0.61
2023-04-11T03:56:41.538Z,-0.06
2023-04-11T03:59:17.862Z,0.60
2023-04-11T04:01:56.248Z,1.48
2023-04-11T04:04:26.320Z,2.38
2023-04-11T04:07:06.014Z,3.34
2023-04-11T04:09:41.344Z,4.64
2023-04-11T04:12:10.900Z,6.05
2023-04-11T04:14:59.126Z,7.45
2023-04-11T04:17:28.331Z,8.37
2023-04-11T04:19:57.539Z,9.22
2023-04-11T04:22:27.411Z,9.88
2023-04-11T04:24:58.778Z,10.21
2023-04-11T04:27:30.444Z,10.82
2023-04-11T04:30:03.390Z,11.30
2023-04-11T04:32:41.627Z,11.80
2023-04-11T04:35:17.264Z,12.54
2023-04-11T04:37:46.302Z,11.92
2023-04-11T04:40:40.592Z,11.24
2023-04-11T04:43:18.876Z,10.97
2023-04-11T04:46:13.917Z,11.94
2023-04-11T04:48:48.044Z,12.18
2023-04-11T04:51:16.794Z,12.33
2023-04-11T04:53:46.820Z,12.96
2023-04-11T04:56:17.460Z,14.13
2023-04-11T04:58:50.134Z,14.05
2023-04-11T05:01:22.294Z,14.47
2023-04-11T05:03:59.985Z,14.87
2023-04-11T05:06:52.378Z,15.09
2023-04-11T05:09:21.798Z,15.59
2023-04-11T05:11:53.355Z,15.67
2023-04-11T05:14:24.346Z,15.25
2023-04-11T05:16:53.408Z,14.15
2023-04-11T05:19:22.327Z,13.58
2023-04-11T05:21:53.185Z,12.54
2023-04-11T05:24:22.808Z,11.15
2023-04-11T05:26:51.880Z,10.71
2023-04-11T05:29:22.318Z,11.81
2023-04-11T05:31:51.408Z,13.40
2023-04-11T05:34:20.172Z,14.68
2023-04-11T05:36:52.645Z,15.42
2023-04-11T05:39:22.923Z,16.04
2023-04-11T05:41:51.847Z,15.14
2023-04-11T05:44:20.863Z,14.44
2023-04-11T05:46:49.724Z,13.84
2023-04-11T05:49:18.476Z,13.28
2023-04-11T05:51:47.247Z,13.94
2023-04-11T05:54:33.673Z,14.88
2023-04-11T05:57:03.605Z,15.27
2023-04-11T05:59:33.146Z,16.72
2023-04-11T06:02:03.163Z,17.23
2023-04-11T06:04:32.888Z,17.65
2023-04-11T06:07:04.544Z,18.46
2023-04-11T06:09:34.192Z,19.15
2023-04-11T06:12:03.890Z,19.09
2023-04-11T06:14:33.263Z,18.63
2023-04-11T06:17:02.146Z,18.00
2023-04-11T06:19:31.192Z,15.13
2023-04-11T06:22:00.093Z,13.02
2023-04-11T06:24:40.064Z,11.79
2023-04-11T06:27:12.288Z,11.49
2023-04-11T06:29:44.217Z,11.44
2023-04-11T06:32:13.476Z,10.32
2023-04-11T06:34:42.692Z,9.55
2023-04-11T06:37:11.654Z,9.71
2023-04-11T06:39:40.388Z,10.51
2023-04-11T06:42:09.169Z,12.21
2023-04-11T06:44:38.122Z,13.56
2023-04-11T06:47:09.748Z,12.96
2023-04-11T06:49:38.634Z,11.11
2023-04-11T06:52:07.563Z,10.05
2023-04-11T06:54:36.398Z,11.05
2023-04-11T06:57:06.175Z,10.89
2023-04-11T06:59:35.613Z,9.84
2023-04-11T07:02:05.299Z,9.58
2023-04-11T07:04:34.616Z,11.75
2023-04-11T07:07:03.479Z,14.03
2023-04-11T07:09:32.875Z,14.38
2023-04-11T07:12:02.324Z,12.45
2023-04-11T07:14:31.333Z,10.86
2023-04-11T07:17:00.131Z,9.76
2023-04-11T07:19:29.222Z,8.99
2023-04-11T07:21:59.048Z,9.37
2023-04-11T07:24:31.082Z,10.17
2023-04-11T07:27:02.318Z,11.57
2023-04-11T07:29:31.630Z,11.26
2023-04-11T07:32:00.625Z,10.12
2023-04-11T07:34:29.868Z,9.91
2023-04-11T07:37:01.430Z,9.40
2023-04-11T07:39:30.305Z,8.58
2023-04-11T07:41:59.071Z,8.26
2023-04-11T07:44:27.814Z,8.50
2023-04-11T07:46:56.557Z,8.12
2023-04-11T07:49:25.494Z,7.69
2023-04-11T07:51:54.268Z,7.64
2023-04-11T07:54:25.647Z,9.25
2023-04-11T07:56:54.620Z,11.02
2023-04-11T07:59:23.586Z,12.91
2023-04-11T08:02:03.709Z,14.75
2023-04-11T08:04:34.645Z,15.61
2023-04-11T08:07:04.382Z,15.19
2023-04-11T08:09:33.992Z,15.06
2023-04-11T08:12:02.866Z,14.66
2023-04-11T08:14:31.695Z,14.58
2023-04-11T08:17:00.733Z,14.76
2023-04-11T08:19:29.629Z,14.79
2023-04-11T08:21:58.594Z,14.00
2023-04-11T08:24:27.383Z,12.71
2023-04-11T08:26:56.224Z,11.35
2023-04-11T08:29:25.003Z,10.36
2023-04-11T08:31:54.068Z,9.62
2023-04-11T08:34:23.102Z,9.09
2023-04-11T08:36:52.089Z,8.45
2023-04-11T08:39:21.009Z,8.04
2023-04-11T08:41:49.888Z,7.73
2023-04-11T08:44:19.087Z,7.66
2023-04-11T08:46:48.435Z,7.75
2023-04-11T08:49:17.322Z,7.80
2023-04-11T08:51:47.842Z,7.96
2023-04-11T08:54:16.980Z,7.92
2023-04-11T08:56:46.242Z,7.82
2023-04-11T08:59:15.074Z,7.58
2023-04-11T09:01:44.440Z,7.59
2023-04-11T09:04:13.908Z,7.74
2023-04-11T09:07:00.992Z,7.78
2023-04-11T09:09:31.574Z,7.79
2023-04-11T09:12:00.463Z,7.80
2023-04-11T09:14:29.824Z,7.78
2023-04-11T09:17:04.929Z,7.85
2023-04-11T09:19:35.743Z,7.82
2023-04-11T09:22:08.157Z,7.68
2023-04-11T09:24:38.074Z,7.35
2023-04-11T09:27:27.175Z,7.17
2023-04-11T09:29:56.238Z,6.97
2023-04-11T09:32:32.107Z,6.93
2023-04-11T09:35:11.741Z,6.89
2023-04-11T09:37:47.563Z,6.80
2023-04-11T09:40:21.264Z,6.69
2023-04-11T09:42:57.240Z,6.60
2023-04-11T09:45:27.167Z,6.45
2023-04-11T09:47:58.327Z,6.55
2023-04-11T09:50:28.340Z,6.69
2023-04-11T09:52:59.058Z,6.89
2023-04-11T09:55:28.502Z,7.13
2023-04-11T09:57:57.579Z,7.21
2023-04-11T10:00:33.363Z,7.27
2023-04-11T10:03:02.647Z,7.29
2023-04-11T10:05:32.374Z,7.27
2023-04-11T10:08:09.510Z,7.09
2023-04-11T10:10:38.384Z,6.90
2023-04-11T10:13:34.436Z,6.73
2023-04-11T10:16:10.321Z,6.60
2023-04-11T10:19:00.836Z,6.60
2023-04-11T10:21:36.955Z,6.57
2023-04-11T10:24:14.997Z,6.60
2023-04-11T10:27:05.865Z,6.61
2023-04-11T10:29:47.488Z,6.58
2023-04-11T10:32:17.269Z,6.60
2023-04-11T10:34:54.880Z,6.64
2023-04-11T10:37:34.709Z,6.59
2023-04-11T10:40:12.928Z,6.63
2023-04-11T10:42:47.412Z,6.66
2023-04-11T10:45:22.432Z,6.59
2023-04-11T10:47:57.692Z,6.56
2023-04-11T10:50:32.507Z,6.48
2023-04-11T10:53:09.644Z,6.47
2023-04-11T10:55:50.633Z,6.46
2023-04-11T10:58:22.739Z,6.44
2023-04-11T11:01:01.015Z,6.40
2023-04-11T11:03:34.743Z,6.35
2023-04-11T11:06:06.412Z,6.33
2023-04-11T11:08:38.699Z,6.27
2023-04-11T11:11:09.483Z,6.16
2023-04-11T11:13:42.080Z,6.01
2023-04-11T11:16:16.259Z,5.82
2023-04-11T11:18:50.327Z,5.78
2023-04-11T11:21:27.326Z,5.75
2023-04-11T11:24:04.215Z,5.82
2023-04-11T11:26:43.516Z,5.89
2023-04-11T11:29:13.073Z,5.98
2023-04-11T11:31:43.499Z,6.00
2023-04-11T11:34:23.404Z,5.96
2023-04-11T11:36:53.537Z,5.93
2023-04-11T11:39:23.383Z,5.87
2023-04-11T11:41:53.935Z,5.75
2023-04-11T11:44:28.266Z,5.83
2023-04-11T11:47:15.795Z,5.79
2023-04-11T11:49:52.330Z,5.71
2023-04-11T11:52:35.394Z,5.61
2023-04-11T11:55:09.573Z,5.54
2023-04-11T11:57:45.720Z,5.48
2023-04-11T12:00:16.768Z,5.37
2023-04-11T12:02:46.203Z,5.25
2023-04-11T12:05:16.528Z,5.10
2023-04-11T12:07:45.474Z,4.94
2023-04-11T12:10:18.132Z,4.77
2023-04-11T12:12:53.074Z,4.72
2023-04-11T12:15:25.096Z,4.59
2023-04-11T12:17:55.729Z,4.47
2023-04-11T12:20:27.050Z,4.38
2023-04-11T12:22:56.815Z,4.38
2023-04-11T12:25:28.605Z,4.38
2023-04-11T12:27:57.986Z,4.36
2023-04-11T12:30:28.268Z,4.39
2023-04-11T12:32:58.959Z,4.33
2023-04-11T12:35:28.035Z,4.28
2023-04-11T12:37:57.138Z,4.29
2023-04-11T12:40:26.229Z,4.34
2023-04-11T12:42:57.337Z,4.31
2023-04-11T12:45:27.228Z,4.45
2023-04-11T12:47:56.208Z,4.43
2023-04-11T12:50:25.095Z,4.38
2023-04-11T12:52:55.551Z,4.36
2023-04-11T12:55:26.165Z,4.28
2023-04-11T12:57:55.231Z,4.24
2023-04-11T13:00:25.070Z,4.19
2023-04-11T13:02:55.159Z,4.16
2023-04-11T13:05:24.311Z,4.10
2023-04-11T13:07:53.379Z,4.00
2023-04-11T13:10:22.309Z,3.91
2023-04-11T13:12:53.838Z,3.81
2023-04-11T13:15:22.778Z,3.76
2023-04-11T13:17:51.780Z,3.73
2023-04-11T13:20:20.956Z,3.70
2023-04-11T13:22:49.724Z,3.68
2023-04-11T13:25:19.790Z,3.54
2023-04-11T13:27:48.813Z,3.50
2023-04-11T13:30:17.644Z,3.43
2023-04-11T13:32:46.476Z,3.42
2023-04-11T13:35:15.344Z,3.42
2023-04-11T13:37:44.193Z,3.44
2023-04-11T13:40:13.368Z,3.36
2023-04-11T13:42:42.169Z,3.35
2023-04-11T13:45:11.821Z,3.30
2023-04-11T13:47:40.981Z,3.27
2023-04-11T13:50:10.135Z,3.25
2023-04-11T13:52:40.432Z,3.21
2023-04-11T13:55:09.667Z,3.23
2023-04-11T13:57:38.727Z,3.25
2023-04-11T14:00:13.034Z,3.34
2023-04-11T14:02:43.426Z,3.38
2023-04-11T14:05:12.696Z,3.46
2023-04-11T14:07:42.208Z,3.61
2023-04-11T14:10:11.434Z,3.74
2023-04-11T14:12:41.529Z,3.80
2023-04-11T14:15:11.208Z,3.85
2023-04-11T14:17:40.228Z,3.89
2023-04-11T14:20:09.860Z,3.96
2023-04-11T14:22:38.741Z,3.92
2023-04-11T14:25:11.157Z,3.94
2023-04-11T14:27:41.927Z,3.90
2023-04-11T14:30:12.906Z,3.85
2023-04-11T14:32:42.564Z,3.81
2023-04-11T14:35:11.456Z,3.82
2023-04-11T14:37:40.365Z,3.78
2023-04-11T14:40:11.516Z,3.88
2023-04-11T14:42:41.490Z,3.92
2023-04-11T14:45:10.634Z,3.94
2023-04-11T14:47:40.758Z,3.89
2023-04-11T14:50:10.110Z,3.86
2023-04-11T14:52:39.109Z,3.82
2023-04-11T14:55:09.407Z,3.80
2023-04-11T14:57:57.225Z,3.70
2023-04-11T15:00:28.286Z,3.62
2023-04-11T15:02:57.929Z,3.47
2023-04-11T15:05:27.412Z,3.40
2023-04-11T15:07:56.250Z,3.31
2023-04-11T15:10:26.311Z,3.27
2023-04-11T15:12:55.170Z,3.29
2023-04-11T15:15:23.993Z,3.29
2023-04-11T15:18:19.874Z,3.37
2023-04-11T15:20:49.178Z,3.42
2023-04-11T15:23:19.032Z,3.46
2023-04-11T15:25:58.820Z,3.55
2023-04-11T15:28:31.333Z,3.67
2023-04-11T15:31:00.347Z,3.77
2023-04-11T15:33:31.799Z,3.83
2023-04-11T15:36:01.126Z,3.84
2023-04-11T15:38:30.016Z,3.89
2023-04-11T15:41:00.447Z,4.14
2023-04-11T15:43:29.479Z,4.31
2023-04-11T15:45:58.248Z,4.44
2023-04-11T15:48:27.067Z,4.52
2023-04-11T15:50:55.936Z,4.50
2023-04-11T15:53:24.921Z,4.43
2023-04-11T15:55:54.702Z,4.41
2023-04-11T15:58:23.396Z,4.14
2023-04-11T16:00:55.444Z,3.85
2023-04-11T16:03:24.825Z,3.64
2023-04-11T16:05:54.186Z,3.54
2023-04-11T16:08:23.311Z,3.47
2023-04-11T16:10:52.061Z,3.34
2023-04-11T16:13:20.903Z,3.19
2023-04-11T16:15:49.616Z,3.04
2023-04-11T16:18:18.403Z,2.88
2023-04-11T16:20:47.557Z,2.70
2023-04-11T16:23:16.528Z,2.54
2023-04-11T16:25:45.656Z,2.39
2023-04-11T16:28:15.929Z,2.29
2023-04-11T16:30:44.913Z,2.22
2023-04-11T16:33:13.811Z,2.16
2023-04-11T16:35:42.617Z,2.12
2023-04-11T16:38:11.535Z,2.00
2023-04-11T16:40:40.310Z,2.09
2023-04-11T16:43:09.072Z,2.10
2023-04-11T16:45:37.859Z,2.15
2023-04-11T16:48:07.535Z,2.18
2023-04-11T16:50:36.763Z,2.23
2023-04-11T16:53:05.525Z,2.23
2023-04-11T16:55:34.608Z,2.24
2023-04-11T16:58:03.446Z,2.21
2023-04-11T17:00:33.377Z,2.19
2023-04-11T17:03:02.683Z,2.17
2023-04-11T17:05:34.880Z,2.16
2023-04-11T17:08:03.739Z,2.13
2023-04-11T17:10:32.451Z,2.14
2023-04-11T17:13:01.364Z,2.14
2023-04-11T17:15:30.334Z,2.18
2023-04-11T17:17:59.501Z,2.15
2023-04-11T17:20:28.324Z,2.23
2023-04-11T17:22:57.109Z,2.24
2023-04-11T17:25:26.221Z,2.28
2023-04-11T17:27:54.983Z,2.31
2023-04-11T17:30:24.000Z,2.35
2023-04-11T17:32:55.851Z,2.40
2023-04-11T17:35:24.874Z,2.36
2023-04-11T17:37:53.643Z,2.42
2023-04-11T17:40:22.402Z,2.42
2023-04-11T17:42:51.805Z,2.44
2023-04-11T17:45:22.111Z,2.39
2023-04-11T17:47:51.760Z,2.04
2023-04-11T17:50:20.789Z,1.57
2023-04-11T17:52:49.580Z,0.96
2023-04-11T17:55:19.514Z,0.46
2023-04-11T17:57:52.106Z,0.19
2023-04-11T18:00:23.945Z,0.10
2023-04-11T18:03:01.287Z,0.04
2023-04-11T18:05:35.434Z,0.03
2023-04-11T18:08:05.195Z,0.03
2023-04-11T18:10:34.308Z,0.03
2023-04-11T18:13:03.788Z,-0.01
2023-04-11T18:15:33.568Z,0.00
2023-04-11T18:18:05.898Z,-0.01
2023-04-11T18:20:34.735Z,-0.02
2023-04-11T18:23:03.762Z,-0.01
2023-04-11T18:25:32.832Z,-0.02
2023-04-11T18:28:01.898Z,-0.02
2023-04-11T18:30:30.753Z,0.00
2023-04-11T18:32:59.512Z,-0.05
2023-04-11T18:35:29.192Z,-0.01
2023-04-11T18:37:58.053Z,-0.03
2023-04-11T18:40:27.320Z,-0.02
2023-04-11T18:42:57.543Z,-0.02
2023-04-11T18:45:27.693Z,-0.02
2023-04-11T18:47:56.590Z,-0.02
2023-04-11T18:50:25.663Z,-0.02
2023-04-11T18:52:56.565Z,-0.02
2023-04-11T18:55:28.096Z,-0.05
2023-04-11T18:58:00.028Z,-0.05
2023-04-11T19:00:32.011Z,-0.08
2023-04-11T19:03:01.485Z,-0.09
2023-04-11T19:05:30.910Z,-0.10
2023-04-11T19:08:01.015Z,-0.09
2023-04-11T19:10:29.815Z,-0.11
2023-04-11T19:12:58.566Z,-0.17
2023-04-11T19:15:27.469Z,-0.22
2023-04-11T19:17:57.967Z,-0.30
2023-04-11T19:20:27.384Z,-0.33
2023-04-11T19:22:56.317Z,-0.36
2023-04-11T19:25:25.578Z,-0.38
2023-04-11T19:27:54.426Z,-0.43
2023-04-11T19:30:23.253Z,-0.49
2023-04-11T19:32:52.223Z,-0.55
2023-04-11T19:35:24.676Z,-0.60
2023-04-11T19:37:53.800Z,-0.67
2023-04-11T19:40:25.440Z,-0.78
2023-04-11T19:42:54.218Z,-0.85
2023-04-11T19:45:23.045Z,-0.90
2023-04-11T19:47:51.840Z,-0.92
2023-04-11T19:50:20.849Z,-0.96
2023-04-11T19:52:49.773Z,-1.03
2023-04-11T19:55:18.616Z,-1.09
2023-04-11T19:57:47.420Z,-1.10
2023-04-11T20:00:18.529Z,-1.14
2023-04-11T20:02:49.136Z,-1.17
2023-04-11T20:05:19.825Z,-1.23
2023-04-11T20:07:48.958Z,-1.28
2023-04-11T20:10:17.818Z,-1.36
2023-04-11T20:12:46.709Z,-1.42
2023-04-11T20:15:15.686Z,-1.42
2023-04-11T20:17:48.788Z,-1.45
2023-04-11T20:20:20.725Z,-1.32
2023-04-11T20:22:49.714Z,-1.25
2023-04-11T20:25:18.529Z,-1.27
2023-04-11T20:27:47.456Z,-1.24
2023-04-11T20:30:17.821Z,-1.28
2023-04-11T20:32:46.685Z,-1.25
2023-04-11T20:35:15.735Z,-1.25
2023-04-11T20:37:44.673Z,-1.23
2023-04-11T20:40:16.779Z,-1.12
2023-04-11T20:42:50.143Z,-1.06
2023-04-11T20:45:22.774Z,-1.06
2023-04-11T20:47:53.535Z,-1.18
2023-04-11T20:50:22.571Z,-1.21
2023-04-11T20:52:51.932Z,-1.34
2023-04-11T20:55:21.355Z,-1.41
2023-04-11T20:57:50.946Z,-1.45
2023-04-11T21:00:20.608Z,-1.50
2023-04-11T21:02:50.910Z,-1.54
2023-04-11T21:05:22.627Z,-1.65
2023-04-11T21:07:54.748Z,-1.75
2023-04-11T21:10:23.682Z,-1.80
2023-04-11T21:12:54.600Z,-1.87
2023-04-11T21:15:23.658Z,-1.91
2023-04-11T21:17:52.819Z,-1.98
2023-04-11T21:20:22.840Z,-2.05
2023-04-11T21:22:56.099Z,-2.17
2023-04-11T21:25:25.092Z,-2.23
2023-04-11T21:27:53.998Z,-2.26
2023-04-11T21:30:23.034Z,-2.29
2023-04-11T21:32:52.588Z,-2.34
2023-04-11T21:35:21.394Z,-2.36
2023-04-11T21:37:50.177Z,-2.26
2023-04-11T21:40:18.990Z,-2.23
2023-04-11T21:42:47.775Z,-2.26
2023-04-11T21:45:16.828Z,-2.29
2023-04-11T21:47:47.133Z,-2.33
2023-04-11T21:50:16.157Z,-2.40
2023-04-11T21:52:45.825Z,-2.42
2023-04-11T21:55:16.358Z,-2.49
2023-04-11T21:57:45.098Z,-2.48
2023-04-11T22:00:15.404Z,-2.60
2023-04-11T22:02:44.759Z,-2.56
2023-04-11T22:05:13.811Z,-2.59
2023-04-11T22:07:48.906Z,-2.64
2023-04-11T22:10:23.898Z,-2.73
2023-04-11T22:12:54.957Z,-2.79
2023-04-11T22:15:24.645Z,-2.96
2023-04-11T22:17:56.931Z,-3.14
2023-04-11T22:20:26.048Z,-3.26
2023-04-11T22:22:57.437Z,-3.38
2023-04-11T22:25:26.698Z,-3.53
2023-04-11T22:27:56.844Z,-3.59
2023-04-11T22:30:26.881Z,-3.70
2023-04-11T22:32:56.080Z,-3.74
2023-04-11T22:35:26.540Z,-3.80
2023-04-11T22:37:58.947Z,-3.84
2023-04-11T22:40:27.973Z,-3.87
2023-04-11T22:42:57.024Z,-3.93
2023-04-11T22:45:26.154Z,-3.93
2023-04-11T22:47:57.336Z,-3.98
2023-04-11T22:50:26.316Z,-4.06
2023-04-11T22:52:55.477Z,-4.11
2023-04-11T22:55:25.207Z,-4.15
2023-04-11T22:57:53.998Z,-4.18
2023-04-11T23:00:24.512Z,-4.21
2023-04-11T23:02:53.793Z,-4.20
2023-04-11T23:05:22.616Z,-4.25
2023-04-11T23:07:51.698Z,-4.22
2023-04-11T23:10:20.630Z,-4.21
2023-04-11T23:12:49.805Z,-4.14
2023-04-11T23:15:18.685Z,-4.13
2023-04-11T23:17:47.561Z,-4.12
2023-04-11T23:20:18.265Z,-4.08
2023-04-11T23:22:47.206Z,-4.15
2023-04-11T23:25:16.159Z,-4.03
2023-04-11T23:27:45.928Z,-4.01
2023-04-11T23:30:17.982Z,-3.96
2023-04-11T23:32:47.737Z,-3.97
2023-04-11T23:35:19.946Z,-3.91
2023-04-11T23:37:48.737Z,-3.90
2023-04-11T23:40:17.445Z,-3.90
2023-04-11T23:42:46.429Z,-3.91
2023-04-11T23:45:15.686Z,-3.91
2023-04-11T23:47:44.474Z,-3.96
2023-04-11T23:50:13.409Z,-4.03
2023-04-11T23:52:42.305Z,-4.07
2023-04-11T23:55:11.621Z,-4.01
2023-04-11T23:57:41.283Z,-4.01
